sensor_id;sensor_type;location;lat;lon;timestamp;P1;durP1;ratioP1;P2;durP2;ratioP2
13834;SDS011;6988;52.614;13.500;2023-11-22T00:03:07;8.53;;;6.93;;
13834;SDS011;6988;52.614;13.500;2023-11-22T00:07:58;10.53;;;7.60;;
13834;SDS011;6988;52.614;13.500;2023-11-22T00:12:50;11.27;;;8.23;;
13834;SDS011;6988;52.614;13.500;2023-11-22T00:17:42;10.93;;;7.43;;
13834;SDS011;6988;52.614;13.500;2023-11-22T00:22:35;9.97;;;7.10;;
13834;SDS011;6988;52.614;13.500;2023-11-22T00:27:27;10.67;;;7.97;;
13834;SDS011;6988;52.614;13.500;2023-11-22T00:32:20;11.80;;;7.17;;
13834;SDS011;6988;52.614;13.500;2023-11-22T00:37:12;10.13;;;7.50;;
13834;SDS011;6988;52.614;13.500;2023-11-22T00:42:05;9.83;;;7.43;;
13834;SDS011;6988;52.614;13.500;2023-11-22T00:46:57;10.60;;;8.07;;
13834;SDS011;6988;52.614;13.500;2023-11-22T00:51:49;10.63;;;7.63;;
13834;SDS011;6988;52.614;13.500;2023-11-22T00:56:42;10.73;;;7.33;;
13834;SDS011;6988;52.614;13.500;2023-11-22T01:01:35;10.10;;;7.60;;
13834;SDS011;6988;52.614;13.500;2023-11-22T01:06:27;8.77;;;7.17;;
13834;SDS011;6988;52.614;13.500;2023-11-22T01:11:20;11.73;;;7.53;;
13834;SDS011;6988;52.614;13.500;2023-11-22T01:16:12;10.40;;;7.77;;
13834;SDS011;6988;52.614;13.500;2023-11-22T01:21:05;10.67;;;7.80;;
13834;SDS011;6988;52.614;13.500;2023-11-22T01:25:59;9.33;;;7.33;;
13834;SDS011;6988;52.614;13.500;2023-11-22T01:30:53;11.43;;;7.77;;
13834;SDS011;6988;52.614;13.500;2023-11-22T01:35:45;9.20;;;7.10;;
13834;SDS011;6988;52.614;13.500;2023-11-22T01:40:44;10.60;;;7.83;;
13834;SDS011;6988;52.614;13.500;2023-11-22T01:45:36;11.00;;;7.47;;
13834;SDS011;6988;52.614;13.500;2023-11-22T01:50:28;9.67;;;7.90;;
13834;SDS011;6988;52.614;13.500;2023-11-22T01:55:20;10.67;;;7.63;;
13834;SDS011;6988;52.614;13.500;2023-11-22T02:00:14;9.70;;;7.67;;
13834;SDS011;6988;52.614;13.500;2023-11-22T02:05:07;9.83;;;7.57;;
13834;SDS011;6988;52.614;13.500;2023-11-22T02:10:02;10.97;;;8.03;;
13834;SDS011;6988;52.614;13.500;2023-11-22T02:14:57;11.20;;;8.50;;
13834;SDS011;6988;52.614;13.500;2023-11-22T02:19:50;10.00;;;7.80;;
13834;SDS011;6988;52.614;13.500;2023-11-22T02:24:44;11.67;;;8.87;;
13834;SDS011;6988;52.614;13.500;2023-11-22T02:29:36;10.30;;;8.30;;
13834;SDS011;6988;52.614;13.500;2023-11-22T02:34:28;12.13;;;8.20;;
13834;SDS011;6988;52.614;13.500;2023-11-22T02:39:21;10.83;;;8.67;;
13834;SDS011;6988;52.614;13.500;2023-11-22T02:44:28;11.27;;;8.70;;
13834;SDS011;6988;52.614;13.500;2023-11-22T02:49:20;9.80;;;8.30;;
13834;SDS011;6988;52.614;13.500;2023-11-22T02:54:12;10.03;;;7.93;;
13834;SDS011;6988;52.614;13.500;2023-11-22T02:59:04;10.40;;;8.50;;
13834;SDS011;6988;52.614;13.500;2023-11-22T03:04:05;11.40;;;8.77;;
13834;SDS011;6988;52.614;13.500;2023-11-22T03:08:56;9.40;;;8.07;;
13834;SDS011;6988;52.614;13.500;2023-11-22T03:18:48;9.27;;;8.07;;
13834;SDS011;6988;52.614;13.500;2023-11-22T03:23:42;10.67;;;8.80;;
13834;SDS011;6988;52.614;13.500;2023-11-22T03:28:34;12.97;;;9.90;;
13834;SDS011;6988;52.614;13.500;2023-11-22T03:33:26;12.20;;;9.43;;
13834;SDS011;6988;52.614;13.500;2023-11-22T03:38:18;11.97;;;8.60;;
13834;SDS011;6988;52.614;13.500;2023-11-22T03:43:12;10.60;;;8.57;;
13834;SDS011;6988;52.614;13.500;2023-11-22T03:48:04;11.13;;;8.40;;
13834;SDS011;6988;52.614;13.500;2023-11-22T03:52:56;10.80;;;8.60;;
13834;SDS011;6988;52.614;13.500;2023-11-22T03:57:48;10.33;;;8.50;;
13834;SDS011;6988;52.614;13.500;2023-11-22T04:02:42;10.97;;;8.60;;
13834;SDS011;6988;52.614;13.500;2023-11-22T04:07:33;9.93;;;8.50;;
13834;SDS011;6988;52.614;13.500;2023-11-22T04:12:25;11.07;;;8.90;;
13834;SDS011;6988;52.614;13.500;2023-11-22T04:17:19;10.60;;;8.73;;
13834;SDS011;6988;52.614;13.500;2023-11-22T04:22:12;10.63;;;9.03;;
13834;SDS011;6988;52.614;13.500;2023-11-22T04:27:04;9.57;;;8.27;;
13834;SDS011;6988;52.614;13.500;2023-11-22T04:31:56;11.43;;;9.07;;
13834;SDS011;6988;52.614;13.500;2023-11-22T04:36:48;11.03;;;8.63;;
13834;SDS011;6988;52.614;13.500;2023-11-22T04:41:41;10.63;;;9.07;;
13834;SDS011;6988;52.614;13.500;2023-11-22T04:46:33;10.57;;;8.90;;
13834;SDS011;6988;52.614;13.500;2023-11-22T04:51:25;10.57;;;8.83;;
13834;SDS011;6988;52.614;13.500;2023-11-22T04:56:22;11.80;;;9.77;;
13834;SDS011;6988;52.614;13.500;2023-11-22T05:01:15;10.70;;;8.90;;
13834;SDS011;6988;52.614;13.500;2023-11-22T05:06:08;11.87;;;9.63;;
13834;SDS011;6988;52.614;13.500;2023-11-22T05:11:00;10.77;;;9.13;;
13834;SDS011;6988;52.614;13.500;2023-11-22T05:15:53;10.30;;;8.80;;
13834;SDS011;6988;52.614;13.500;2023-11-22T05:20:46;10.13;;;9.00;;
13834;SDS011;6988;52.614;13.500;2023-11-22T05:25:39;10.87;;;9.00;;
13834;SDS011;6988;52.614;13.500;2023-11-22T05:30:30;11.20;;;10.00;;
13834;SDS011;6988;52.614;13.500;2023-11-22T05:35:23;12.13;;;9.43;;
13834;SDS011;6988;52.614;13.500;2023-11-22T05:40:16;12.00;;;9.33;;
13834;SDS011;6988;52.614;13.500;2023-11-22T05:45:08;12.00;;;9.73;;
13834;SDS011;6988;52.614;13.500;2023-11-22T05:50:01;12.17;;;9.60;;
13834;SDS011;6988;52.614;13.500;2023-11-22T05:54:53;12.80;;;10.20;;
13834;SDS011;6988;52.614;13.500;2023-11-22T05:59:47;12.17;;;9.60;;
13834;SDS011;6988;52.614;13.500;2023-11-22T06:04:39;11.47;;;9.87;;
13834;SDS011;6988;52.614;13.500;2023-11-22T06:09:32;14.93;;;10.50;;
13834;SDS011;6988;52.614;13.500;2023-11-22T06:14:24;13.43;;;10.60;;
13834;SDS011;6988;52.614;13.500;2023-11-22T06:19:18;12.97;;;9.80;;
13834;SDS011;6988;52.614;13.500;2023-11-22T06:24:10;12.00;;;9.87;;
13834;SDS011;6988;52.614;13.500;2023-11-22T06:29:07;12.03;;;9.80;;
13834;SDS011;6988;52.614;13.500;2023-11-22T06:33:59;13.27;;;11.00;;
13834;SDS011;6988;52.614;13.500;2023-11-22T06:38:53;13.83;;;11.10;;
13834;SDS011;6988;52.614;13.500;2023-11-22T06:43:45;13.20;;;10.70;;
13834;SDS011;6988;52.614;13.500;2023-11-22T06:48:37;13.87;;;10.57;;
13834;SDS011;6988;52.614;13.500;2023-11-22T06:53:28;12.93;;;10.43;;
13834;SDS011;6988;52.614;13.500;2023-11-22T06:58:22;13.83;;;9.93;;
13834;SDS011;6988;52.614;13.500;2023-11-22T07:03:14;11.40;;;9.83;;
13834;SDS011;6988;52.614;13.500;2023-11-22T07:08:06;14.10;;;10.53;;
13834;SDS011;6988;52.614;13.500;2023-11-22T07:12:58;13.83;;;10.90;;
13834;SDS011;6988;52.614;13.500;2023-11-22T07:17:52;14.70;;;10.37;;
13834;SDS011;6988;52.614;13.500;2023-11-22T07:22:45;15.17;;;11.17;;
13834;SDS011;6988;52.614;13.500;2023-11-22T07:27:44;15.60;;;11.30;;
13834;SDS011;6988;52.614;13.500;2023-11-22T07:32:37;13.23;;;11.30;;
13834;SDS011;6988;52.614;13.500;2023-11-22T07:37:31;14.67;;;10.80;;
13834;SDS011;6988;52.614;13.500;2023-11-22T07:42:23;13.10;;;10.90;;
13834;SDS011;6988;52.614;13.500;2023-11-22T07:47:15;12.57;;;10.70;;
13834;SDS011;6988;52.614;13.500;2023-11-22T07:52:07;14.73;;;11.17;;
13834;SDS011;6988;52.614;13.500;2023-11-22T07:57:05;15.03;;;11.33;;
13834;SDS011;6988;52.614;13.500;2023-11-22T08:01:57;13.50;;;11.73;;
13834;SDS011;6988;52.614;13.500;2023-11-22T08:06:51;17.50;;;12.40;;
13834;SDS011;6988;52.614;13.500;2023-11-22T08:11:46;14.40;;;11.13;;
13834;SDS011;6988;52.614;13.500;2023-11-22T08:16:40;17.13;;;13.17;;
13834;SDS011;6988;52.614;13.500;2023-11-22T08:21:32;15.47;;;12.93;;
13834;SDS011;6988;52.614;13.500;2023-11-22T08:26:24;16.87;;;13.20;;
13834;SDS011;6988;52.614;13.500;2023-11-22T08:31:16;16.23;;;12.93;;
13834;SDS011;6988;52.614;13.500;2023-11-22T08:36:10;15.57;;;13.10;;
13834;SDS011;6988;52.614;13.500;2023-11-22T08:41:02;16.90;;;13.63;;
13834;SDS011;6988;52.614;13.500;2023-11-22T08:45:55;15.70;;;12.30;;
13834;SDS011;6988;52.614;13.500;2023-11-22T08:50:47;16.50;;;12.00;;
13834;SDS011;6988;52.614;13.500;2023-11-22T08:55:41;14.17;;;11.47;;
13834;SDS011;6988;52.614;13.500;2023-11-22T09:00:34;15.00;;;11.30;;
13834;SDS011;6988;52.614;13.500;2023-11-22T09:05:26;13.83;;;10.87;;
13834;SDS011;6988;52.614;13.500;2023-11-22T20:49:28;30.83;;;23.20;;
13834;SDS011;6988;52.614;13.500;2023-11-22T20:54:21;28.77;;;21.77;;
13834;SDS011;6988;52.614;13.500;2023-11-22T20:59:12;26.70;;;22.13;;
13834;SDS011;6988;52.614;13.500;2023-11-22T21:04:04;27.77;;;22.30;;
13834;SDS011;6988;52.614;13.500;2023-11-22T21:08:58;24.20;;;21.13;;
13834;SDS011;6988;52.614;13.500;2023-11-22T21:13:50;26.23;;;20.43;;
13834;SDS011;6988;52.614;13.500;2023-11-22T21:18:42;26.83;;;21.43;;
13834;SDS011;6988;52.614;13.500;2023-11-22T21:23:34;27.93;;;21.47;;
13834;SDS011;6988;52.614;13.500;2023-11-22T21:28:29;27.07;;;21.23;;
13834;SDS011;6988;52.614;13.500;2023-11-22T21:33:22;26.80;;;20.97;;
13834;SDS011;6988;52.614;13.500;2023-11-22T21:38:13;24.53;;;20.30;;
13834;SDS011;6988;52.614;13.500;2023-11-22T21:43:05;26.77;;;21.63;;
13834;SDS011;6988;52.614;13.500;2023-11-22T21:47:58;26.37;;;21.93;;
13834;SDS011;6988;52.614;13.500;2023-11-22T21:52:50;29.23;;;21.97;;
13834;SDS011;6988;52.614;13.500;2023-11-22T21:57:43;25.77;;;20.03;;
13834;SDS011;6988;52.614;13.500;2023-11-22T22:02:35;24.63;;;20.23;;
13834;SDS011;6988;52.614;13.500;2023-11-22T22:12:30;25.50;;;20.07;;
13834;SDS011;6988;52.614;13.500;2023-11-22T22:17:21;24.43;;;19.47;;
13834;SDS011;6988;52.614;13.500;2023-11-22T22:22:13;23.70;;;19.50;;
13834;SDS011;6988;52.614;13.500;2023-11-22T22:27:05;24.93;;;20.57;;
13834;SDS011;6988;52.614;13.500;2023-11-22T22:31:58;24.53;;;19.50;;
13834;SDS011;6988;52.614;13.500;2023-11-22T22:36:51;23.93;;;18.67;;
13834;SDS011;6988;52.614;13.500;2023-11-22T22:41:45;24.77;;;19.17;;
13834;SDS011;6988;52.614;13.500;2023-11-22T23:04:36;22.87;;;18.50;;
13834;SDS011;6988;52.614;13.500;2023-11-22T23:09:33;21.07;;;18.20;;
13834;SDS011;6988;52.614;13.500;2023-11-22T23:14:25;20.37;;;17.00;;
13834;SDS011;6988;52.614;13.500;2023-11-22T23:19:17;18.07;;;15.47;;
13834;SDS011;6988;52.614;13.500;2023-11-22T23:24:11;19.10;;;15.10;;
13834;SDS011;6988;52.614;13.500;2023-11-22T23:29:03;16.20;;;14.10;;
13834;SDS011;6988;52.614;13.500;2023-11-22T23:33:55;15.97;;;14.27;;
13834;SDS011;6988;52.614;13.500;2023-11-22T23:38:48;17.87;;;13.93;;
13834;SDS011;6988;52.614;13.500;2023-11-22T23:43:41;16.33;;;12.87;;
13834;SDS011;6988;52.614;13.500;2023-11-22T23:48:35;15.97;;;13.50;;
13834;SDS011;6988;52.614;13.500;2023-11-22T23:53:28;14.30;;;11.77;;
13834;SDS011;6988;52.614;13.500;2023-11-22T23:58:20;13.83;;;12.17;;
